createdAt,value
2018-03-14T00:00:28.279Z,4.4
2018-03-14T00:05:05.265Z,4.4
2018-03-14T00:10:23.178Z,4.4
2018-03-14T00:15:09.960Z,4.4
2018-03-14T00:20:02.503Z,4.4
2018-03-14T00:25:13.014Z,4.4
2018-03-14T00:30:07.465Z,4.4
2018-03-14T00:35:20.548Z,4.5
2018-03-14T00:40:02.480Z,4.5
2018-03-14T00:45:18.109Z,4.5
2018-03-14T00:50:25.437Z,4.5
2018-03-14T00:55:07.892Z,4.5
2018-03-14T01:00:03.327Z,4.5
2018-03-14T01:05:08.100Z,4.4
2018-03-14T01:10:08.006Z,4.4
2018-03-14T01:15:07.690Z,4.4
2018-03-14T01:20:05.764Z,4.4
2018-03-14T01:25:05.037Z,4.3
2018-03-14T01:30:03.049Z,4.3
2018-03-14T01:35:12.506Z,4.2
2018-03-14T01:40:03.379Z,4.2
2018-03-14T01:45:07.932Z,4.2
2018-03-14T01:50:28.697Z,4.2
2018-03-14T01:55:02.425Z,4.2
2018-03-14T02:00:02.575Z,4.2
2018-03-14T02:05:23.220Z,4.2
2018-03-14T02:10:07.632Z,4.2
2018-03-14T02:15:10.788Z,4.2
2018-03-14T02:20:03.263Z,4.2
2018-03-14T02:25:10.009Z,4.2
2018-03-14T02:30:35.353Z,4.2
2018-03-14T02:35:07.871Z,4.2
2018-03-14T02:40:10.310Z,4.2
2018-03-14T02:45:05.605Z,4.3
2018-03-14T02:50:10.589Z,4.3
2018-03-14T02:55:05.825Z,4.3
2018-03-14T03:00:03.138Z,4.3
2018-03-14T03:05:15.078Z,4.4
2018-03-14T03:10:07.952Z,4.4
2018-03-14T03:15:03.099Z,4.4
2018-03-14T03:20:10.081Z,4.4
2018-03-14T03:25:10.280Z,4.4
2018-03-14T03:30:20.342Z,4.4
2018-03-14T03:35:07.983Z,4.4
2018-03-14T03:40:05.366Z,4.4
2018-03-14T03:45:05.676Z,4.4
2018-03-14T03:50:05.567Z,4.4
2018-03-14T03:55:05.884Z,4.4
2018-03-14T04:00:03.190Z,4.3
2018-03-14T04:05:02.514Z,4.3
2018-03-14T04:10:07.718Z,4.3
2018-03-14T04:15:07.772Z,4.3
2018-03-14T04:20:05.853Z,4.3
2018-03-14T04:25:05.037Z,4.3
2018-03-14T04:30:05.848Z,4.3
2018-03-14T04:35:05.177Z,4.2
2018-03-14T04:40:08.033Z,4.2
2018-03-14T04:45:08.281Z,4.1
2018-03-14T04:50:07.690Z,4.1
2018-03-14T04:55:02.907Z,4.1
2018-03-14T05:00:05.805Z,4.1
2018-03-14T05:05:02.707Z,4.1
2018-03-14T05:10:05.021Z,4.1
2018-03-14T05:15:02.799Z,4.1
2018-03-14T05:20:08.214Z,4.1
2018-03-14T05:25:07.533Z,4.1
2018-03-14T05:30:02.885Z,4.1
2018-03-14T05:35:03.247Z,4.1
2018-03-14T05:40:10.614Z,4.2
2018-03-14T05:45:37.784Z,4.2
2018-03-14T05:50:10.674Z,4.2
2018-03-14T05:55:02.381Z,4.2
2018-03-14T06:00:07.796Z,4.3
2018-03-14T06:05:03.012Z,4.3
2018-03-14T06:10:02.807Z,4.4
2018-03-14T06:15:13.252Z,4.4
2018-03-14T06:20:02.652Z,4.4
2018-03-14T06:25:05.498Z,4.4
2018-03-14T06:35:02.400Z,4.5
2018-03-14T06:40:13.332Z,4.5
2018-03-14T06:45:07.524Z,4.6
2018-03-14T06:50:05.461Z,4.6
2018-03-14T06:55:03.254Z,4.6
2018-03-14T07:00:05.106Z,4.6
2018-03-14T07:05:10.508Z,4.7
2018-03-14T07:10:10.945Z,4.8
2018-03-14T07:15:02.868Z,4.8
2018-03-14T07:20:08.326Z,4.8
2018-03-14T07:25:02.556Z,4.8
2018-03-14T07:30:02.945Z,4.8
2018-03-14T07:35:03.239Z,4.8
2018-03-14T07:40:03.109Z,4.8
2018-03-14T07:45:25.331Z,4.9
2018-03-14T07:50:07.674Z,4.9
2018-03-14T07:55:05.436Z,5
2018-03-14T08:00:12.900Z,5
2018-03-14T08:05:15.742Z,5
2018-03-14T08:10:07.602Z,5
2018-03-14T08:15:02.878Z,5
2018-03-14T08:20:05.977Z,5.2
2018-03-14T08:25:02.705Z,5.2
2018-03-14T08:30:05.596Z,5.2
2018-03-14T08:35:02.360Z,5.4
2018-03-14T08:40:03.172Z,5.3
2018-03-14T08:45:07.533Z,5.2
2018-03-14T08:50:05.437Z,5.1
2018-03-14T08:55:02.438Z,5.1
2018-03-14T09:00:05.335Z,5
2018-03-14T09:05:08.205Z,4.8
2018-03-14T09:10:03.070Z,4.8
2018-03-14T09:15:04.998Z,4.7
2018-03-14T09:20:02.409Z,4.7
2018-03-14T09:25:07.982Z,4.7
2018-03-14T09:30:13.422Z,4.6
2018-03-14T09:35:02.645Z,4.6
2018-03-14T09:40:07.522Z,4.8
2018-03-14T09:45:05.478Z,5
2018-03-14T09:50:05.365Z,5.1
2018-03-14T10:00:05.998Z,5.4
2018-03-14T10:05:10.240Z,5.6
2018-03-14T10:10:25.797Z,5.6
2018-03-14T10:15:13.222Z,5.7
2018-03-14T10:20:05.188Z,5.9
2018-03-14T10:25:08.188Z,6
2018-03-14T10:30:05.047Z,6.2
2018-03-14T10:35:05.336Z,6.4
2018-03-14T10:40:10.716Z,6.5
2018-03-14T10:45:05.092Z,6.5
2018-03-14T10:50:10.115Z,6.5
2018-03-14T10:55:10.462Z,6.6
2018-03-14T11:00:10.416Z,6.6
2018-03-14T11:05:05.663Z,6.8
2018-03-14T11:10:02.614Z,6.8
2018-03-14T11:15:15.492Z,6.4
2018-03-14T11:20:07.962Z,6.2
2018-03-14T11:25:13.440Z,6.1
2018-03-14T11:30:05.285Z,6
2018-03-14T11:35:15.799Z,5.8
2018-03-14T11:40:10.280Z,5.6
2018-03-14T11:45:10.593Z,5.5
2018-03-14T11:50:05.469Z,2.2
2018-03-14T11:55:03.248Z,5.4
2018-03-14T12:00:10.255Z,5.2
2018-03-14T12:05:02.878Z,5.1
2018-03-14T12:10:02.687Z,5.1
2018-03-14T12:15:05.748Z,5.1
2018-03-14T12:20:03.304Z,5.1
2018-03-14T12:25:07.652Z,5.1
2018-03-14T12:30:35.974Z,5.1
2018-03-14T12:35:25.124Z,5.1
2018-03-14T12:40:07.997Z,5.1
2018-03-14T12:45:08.357Z,5.2
2018-03-14T12:50:15.342Z,5.2
2018-03-14T12:55:03.088Z,5.3
2018-03-14T13:00:07.475Z,5.4
2018-03-14T13:05:02.675Z,5.4
2018-03-14T13:10:07.481Z,5.3
2018-03-14T13:15:20.433Z,5.2
2018-03-14T13:20:02.889Z,5.2
2018-03-14T13:25:03.153Z,5.2
2018-03-14T13:30:12.616Z,5.2
2018-03-14T13:35:05.434Z,5.3
2018-03-14T13:40:08.333Z,5.4
2018-03-14T13:45:22.877Z,5.5
2018-03-14T13:50:03.334Z,5.5
2018-03-14T13:55:02.484Z,5.6
2018-03-14T14:00:10.600Z,5.6
2018-03-14T14:05:03.300Z,5.6
2018-03-14T14:10:20.808Z,5.7
2018-03-14T14:15:02.502Z,5.7
2018-03-14T14:20:15.542Z,5.9
2018-03-14T14:25:10.822Z,5.9
2018-03-14T14:30:03.133Z,5.9
2018-03-14T14:35:15.075Z,5.9
2018-03-14T14:40:02.868Z,5.9
2018-03-14T14:45:18.340Z,5.8
2018-03-14T14:50:05.228Z,5.8
2018-03-14T14:55:03.020Z,5.7
2018-03-14T15:00:02.415Z,5.8
2018-03-14T15:05:02.701Z,5.8
2018-03-14T15:10:02.590Z,5.8
2018-03-14T15:15:07.997Z,5.9
2018-03-14T15:20:02.397Z,5.9
2018-03-14T15:25:10.334Z,5.9
2018-03-14T15:30:02.683Z,5.9
2018-03-14T15:35:03.012Z,5.8
2018-03-14T15:40:07.922Z,5.8
2018-03-14T15:45:23.376Z,5.8
2018-03-14T15:50:02.753Z,5.8
2018-03-14T15:55:05.629Z,5.8
2018-03-14T16:00:02.991Z,5.8
2018-03-14T16:05:03.351Z,5.8
2018-03-14T16:10:33.620Z,5.7
2018-03-14T16:15:05.581Z,5.7
2018-03-14T16:20:08.014Z,5.7
2018-03-14T16:25:03.296Z,5.7
2018-03-14T16:30:02.760Z,5.7
2018-03-14T16:35:15.719Z,5.7
2018-03-14T16:40:05.217Z,5.6
2018-03-14T16:45:15.578Z,5.6
2018-03-14T16:50:05.427Z,5.6
2018-03-14T16:55:03.316Z,5.6
2018-03-14T17:00:27.952Z,5.5
2018-03-14T17:05:10.924Z,5.5
2018-03-14T17:10:07.798Z,5.5
2018-03-14T17:15:10.811Z,5.4
2018-03-14T17:20:10.902Z,5.4
2018-03-14T17:25:17.740Z,5.4
2018-03-14T17:30:10.649Z,5.3
2018-03-14T17:35:17.679Z,5.3
2018-03-14T17:40:05.415Z,5.3
2018-03-14T17:45:03.224Z,5.2
2018-03-14T17:50:05.183Z,5.2
2018-03-14T17:55:10.677Z,5.2
2018-03-14T18:00:05.525Z,5.2
2018-03-14T18:05:05.865Z,5.2
2018-03-14T18:10:05.333Z,5.1
2018-03-14T18:15:05.654Z,5.1
2018-03-14T18:20:08.173Z,5.1
2018-03-14T18:25:10.103Z,5
2018-03-14T18:30:10.037Z,4.9
2018-03-14T18:35:07.833Z,4.8
2018-03-14T18:40:02.625Z,4.8
2018-03-14T18:45:10.728Z,4.8
2018-03-14T18:50:03.103Z,4.8
2018-03-14T18:55:08.714Z,4.7
2018-03-14T19:00:10.893Z,4.7
2018-03-14T19:05:10.211Z,4.6
2018-03-14T19:10:13.247Z,4.6
2018-03-14T19:15:07.504Z,4.6
2018-03-14T19:20:05.474Z,4.6
2018-03-14T19:25:05.788Z,4.6
2018-03-14T19:30:03.124Z,4.6
2018-03-14T19:35:15.085Z,4.6
2018-03-14T19:40:10.543Z,4.6
2018-03-14T19:45:21.005Z,4.6
2018-03-14T19:50:05.887Z,4.6
2018-03-14T19:55:02.819Z,4.6
2018-03-14T20:00:03.181Z,4.6
2018-03-14T20:05:15.165Z,4.6
2018-03-14T20:10:23.180Z,4.6
2018-03-14T20:15:15.982Z,4.7
2018-03-14T20:20:03.377Z,4.6
2018-03-14T20:25:20.442Z,4.6
2018-03-14T20:30:02.778Z,4.6
2018-03-14T20:35:03.150Z,4.6
2018-03-14T20:40:25.692Z,4.6
2018-03-14T20:45:08.094Z,4.6
2018-03-14T20:50:15.157Z,4.6
2018-03-14T20:55:12.798Z,4.6
2018-03-14T21:00:05.670Z,4.6
2018-03-14T21:05:02.420Z,4.6
2018-03-14T21:10:05.782Z,4.6
2018-03-14T21:15:12.608Z,4.6
2018-03-14T21:20:03.047Z,4.6
2018-03-14T21:25:05.105Z,4.5
2018-03-14T21:30:02.487Z,4.5
2018-03-14T21:35:22.933Z,4.5
2018-03-14T21:40:05.227Z,4.5
2018-03-14T21:45:05.628Z,4.4
2018-03-14T21:50:02.950Z,4.4
2018-03-14T21:55:03.329Z,4.4
2018-03-14T22:00:10.232Z,4.3
2018-03-14T22:05:10.515Z,4.3
2018-03-14T22:10:05.081Z,4.3
2018-03-14T22:15:05.371Z,4.3
2018-03-14T22:20:05.297Z,4.3
2018-03-14T22:25:08.175Z,4.3
2018-03-14T22:30:02.475Z,4.3
2018-03-14T22:35:05.342Z,4.3
2018-03-14T22:40:08.204Z,4.3
2018-03-14T22:45:10.001Z,4.3
2018-03-14T22:50:07.443Z,4.3
2018-03-14T22:55:12.905Z,4.2
2018-03-14T23:00:13.349Z,4.2
2018-03-14T23:05:17.731Z,4.2
2018-03-14T23:10:05.135Z,4.2
2018-03-14T23:15:05.467Z,4.2
2018-03-14T23:20:15.545Z,4.1
2018-03-14T23:25:03.159Z,4.1
2018-03-14T23:30:02.547Z,4.1
2018-03-14T23:35:02.788Z,4.1
2018-03-14T23:40:10.249Z,4
2018-03-14T23:45:02.850Z,4
2018-03-14T23:50:03.267Z,4
2018-03-14T23:55:07.509Z,4
